Time;durP1;ratioP1;P1;durP2;ratioP2;P2;SDS_P1;SDS_P2;PMS_P1;PMS_P2;Temp;Humidity;BMP_temperature;BMP_pressure;BME280_temperature;BME280_humidity;BME280_pressure;Samples;Min_cycle;Max_cycle;Signal;HPM_P1;HPM_P2
2021/07/21 00:00:56;;;;;;;7.43;6.00;;;;;;;19.00;64.74;101412.75;5039242;28;20658;-78
2021/07/21 00:03:23;;;;;;;7.03;6.10;;;;;;;18.98;64.91;101402.13;5046543;28;20211;-80
2021/07/21 00:05:50;;;;;;;6.73;6.00;;;;;;;18.98;65.22;101407.53;5036739;28;20234;-80
2021/07/21 00:08:16;;;;;;;8.70;6.50;;;;;;;18.98;65.31;101402.13;5053062;28;20222;-78
2021/07/21 00:10:45;;;;;;;7.67;6.47;;;;;;;18.97;65.39;101400.41;5049806;28;20678;-80
2021/07/21 00:13:32;;;;;;;7.77;6.03;;;;;;;18.95;65.31;101410.50;5037755;28;20218;-80
2021/07/21 00:16:15;;;;;;;7.67;6.00;;;;;;;18.94;65.73;101403.38;5042121;28;20230;-79
2021/07/21 00:18:51;;;;;;;8.77;6.37;;;;;;;18.91;66.03;101400.09;5034605;28;20230;-79
2021/07/21 00:21:22;;;;;;;7.33;6.03;;;;;;;18.89;66.54;101411.00;5045744;28;20208;-77
2021/07/21 00:23:49;;;;;;;6.93;5.83;;;;;;;18.88;66.41;101409.28;5052195;28;20208;-80
2021/07/21 00:26:16;;;;;;;7.10;5.67;;;;;;;18.86;66.51;101403.16;5042734;28;20221;-78
2021/07/21 00:28:42;;;;;;;8.43;6.17;;;;;;;18.85;66.51;101406.84;5053863;28;20734;-79
2021/07/21 00:31:15;;;;;;;6.97;6.10;;;;;;;18.87;66.69;101398.63;5047676;28;20203;-79
2021/07/21 00:33:41;;;;;;;8.83;7.00;;;;;;;18.86;66.66;101402.31;5038736;28;20203;-79
2021/07/21 00:36:08;;;;;;;9.33;7.07;;;;;;;18.85;66.60;101406.84;5036917;28;20253;-78
2021/07/21 00:38:35;;;;;;;9.27;6.63;;;;;;;18.84;66.51;101402.44;5053208;28;20683;-78
2021/07/21 00:41:01;;;;;;;7.50;6.27;;;;;;;18.84;66.88;101398.88;5045192;28;20590;-78
2021/07/21 00:43:29;;;;;;;8.03;6.60;;;;;;;18.84;66.94;101393.50;5047909;28;20212;-78
2021/07/21 00:45:56;;;;;;;7.87;6.63;;;;;;;18.81;67.06;101402.69;5049770;28;20236;-78
2021/07/21 00:48:24;;;;;;;8.17;6.57;;;;;;;18.80;66.93;101394.75;5056496;28;20569;-78
2021/07/21 00:50:54;;;;;;;8.07;6.70;;;;;;;18.78;67.45;101402.13;5039720;28;20675;-78
2021/07/21 00:53:20;;;;;;;7.93;6.20;;;;;;;18.74;67.07;101404.22;5050504;28;20201;-78
2021/07/21 00:55:48;;;;;;;8.63;6.73;;;;;;;18.71;67.34;101399.94;5053493;28;20235;-78
2021/07/21 00:58:15;;;;;;;9.70;6.80;;;;;;;18.70;67.50;101398.22;5040878;28;20202;-78
2021/07/21 01:00:41;;;;;;;7.63;6.73;;;;;;;18.69;67.52;101404.63;5052685;28;20230;-78
2021/07/21 01:03:08;;;;;;;9.07;6.70;;;;;;;18.70;67.61;101403.63;5043326;28;20216;-79
2021/07/21 01:05:41;;;;;;;10.17;7.10;;;;;;;18.71;67.63;101399.09;5043637;28;20224;-78
2021/07/21 01:08:09;;;;;;;8.87;6.57;;;;;;;18.72;67.72;101403.50;5054346;28;20299;-78
2021/07/21 01:10:36;;;;;;;8.63;6.90;;;;;;;18.71;67.75;101399.94;5042533;28;20226;-78
2021/07/21 01:13:11;;;;;;;7.93;6.13;;;;;;;18.71;67.71;101399.94;5041980;28;20668;-80
2021/07/21 01:15:46;;;;;;;9.27;6.47;;;;;;;18.71;67.65;101402.66;5037689;28;20241;-80
2021/07/21 01:18:17;;;;;;;7.77;6.63;;;;;;;18.70;67.94;101409.03;5051893;28;20198;-80
2021/07/21 01:21:16;;;;;;;8.13;6.07;;;;;;;18.70;67.83;101417.13;5045224;28;20205;-80
2021/07/21 01:24:05;;;;;;;6.60;5.93;;;;;;;18.70;67.92;101411.72;5041315;28;20211;-79
2021/07/21 01:26:42;;;;;;;8.63;6.37;;;;;;;18.66;68.03;101418.38;5049514;28;20590;-78
2021/07/21 01:29:11;;;;;;;8.90;6.53;;;;;;;18.65;68.08;101416.66;5044074;28;20216;-78
2021/07/21 01:31:41;;;;;;;9.80;7.27;;;;;;;18.64;68.26;101414.94;5041297;28;20205;-79
2021/07/21 01:34:10;;;;;;;8.40;7.03;;;;;;;18.64;68.28;101420.34;5044128;28;20207;-79
2021/07/21 01:36:40;;;;;;;7.77;6.30;;;;;;;18.63;68.34;101415.91;5034469;28;20255;-79
2021/07/21 01:39:13;;;;;;;7.93;6.67;;;;;;;18.61;68.30;101417.94;5044196;28;20239;-78
2021/07/21 01:41:46;;;;;;;8.20;6.50;;;;;;;18.57;68.49;101411.03;5053770;28;20210;-79
2021/07/21 01:44:18;;;;;;;8.80;6.53;;;;;;;18.54;68.41;101419.38;5049748;28;20259;-79
2021/07/21 01:46:46;;;;;;;8.33;6.63;;;;;;;18.54;68.70;101421.22;5039273;28;20257;-80
2021/07/21 01:49:14;;;;;;;8.27;6.70;;;;;;;18.52;68.53;101415.97;5039425;28;20747;-79
2021/07/21 01:51:44;;;;;;;10.20;6.90;;;;;;;18.50;68.65;101417.94;5037925;28;20202;-79
2021/07/21 01:54:11;;;;;;;9.00;7.03;;;;;;;18.50;68.86;101414.38;5040828;28;20632;-79
2021/07/21 01:56:38;;;;;;;10.10;6.47;;;;;;;18.48;69.08;101408.25;5051222;28;20230;-79
2021/07/21 01:59:07;;;;;;;7.90;6.30;;;;;;;18.47;69.01;101417.31;5035068;28;20217;-79
2021/07/21 02:01:36;;;;;;;7.97;5.93;;;;;;;18.46;69.10;101413.75;5039446;28;20202;-79
2021/07/21 02:04:04;;;;;;;8.67;6.37;;;;;;;18.46;69.19;101412.91;5036900;28;20709;-79
2021/07/21 02:06:32;;;;;;;7.93;6.40;;;;;;;18.44;69.21;101413.06;5041267;28;20231;-79
2021/07/21 02:09:00;;;;;;;8.07;6.43;;;;;;;18.43;68.88;101411.34;5037767;28;20218;-78
2021/07/21 02:11:28;;;;;;;8.33;6.17;;;;;;;18.41;69.31;101416.03;5053519;28;20210;-79
2021/07/21 02:13:57;;;;;;;8.90;6.40;;;;;;;18.41;69.33;101413.31;5039092;28;20202;-79
2021/07/21 02:16:24;;;;;;;8.77;6.97;;;;;;;18.39;69.44;101409.91;5047138;28;20233;-78
2021/07/21 02:18:54;;;;;;;8.63;6.87;;;;;;;18.37;69.53;101406.47;5043565;28;20656;-79
2021/07/21 02:21:22;;;;;;;9.07;7.00;;;;;;;18.35;69.53;101411.13;5054088;28;20690;-79
2021/07/21 02:23:49;;;;;;;9.03;6.50;;;;;;;18.32;69.73;101420.31;5049421;28;20202;-79
2021/07/21 02:26:18;;;;;;;8.27;7.37;;;;;;;18.30;69.93;101410.66;5036402;28;20229;-79
2021/07/21 02:28:45;;;;;;;8.70;7.20;;;;;;;18.27;69.91;101410.94;5034959;28;20206;-79
2021/07/21 02:31:17;;;;;;;9.27;7.07;;;;;;;18.25;70.09;101407.50;5046363;28;20599;-79
2021/07/21 02:33:47;;;;;;;8.87;6.70;;;;;;;18.22;70.32;101403.22;5045310;28;20210;-78
2021/07/21 02:36:15;;;;;;;8.50;7.03;;;;;;;18.22;70.38;101414.00;5053422;28;20683;-80
2021/07/21 02:38:42;;;;;;;8.33;6.83;;;;;;;18.21;70.42;101406.03;5040450;28;20209;-79
2021/07/21 02:41:09;;;;;;;9.33;7.10;;;;;;;18.20;70.42;101402.50;5034319;28;20208;-81
2021/07/21 02:43:36;;;;;;;12.80;7.57;;;;;;;18.19;70.41;101408.00;5050658;28;20217;-81
2021/07/21 02:46:02;;;;;;;11.97;8.33;;;;;;;18.17;70.52;101399.19;5046025;28;20321;-78
2021/07/21 02:48:29;;;;;;;8.07;7.17;;;;;;;18.15;70.46;101398.44;5046313;28;20581;-78
2021/07/21 02:51:02;;;;;;;9.67;7.20;;;;;;;18.14;70.65;101402.13;5053944;28;20212;-78
2021/07/21 02:53:33;;;;;;;11.97;7.00;;;;;;;18.12;70.68;101396.00;5054210;28;20652;-77
2021/07/21 02:56:09;;;;;;;9.63;7.23;;;;;;;18.10;70.72;101401.53;5043095;28;20227;-79
2021/07/21 02:58:44;;;;;;;8.20;6.83;;;;;;;18.10;70.83;101408.75;5053890;28;20229;-80
2021/07/21 03:01:14;;;;;;;9.57;7.03;;;;;;;18.07;70.96;101400.94;5052862;28;20531;-79
2021/07/21 03:03:43;;;;;;;9.60;7.10;;;;;;;18.05;71.36;101403.75;5039523;28;20204;-80
2021/07/21 03:06:10;;;;;;;9.53;6.93;;;;;;;18.03;71.21;101403.88;5036624;28;20248;-78
2021/07/21 03:08:40;;;;;;;8.43;7.10;;;;;;;18.03;71.56;101394.94;5041675;28;20213;-77
2021/07/21 03:11:07;;;;;;;9.00;6.77;;;;;;;18.02;71.42;101402.19;5033933;28;20666;-78
2021/07/21 03:13:40;;;;;;;8.57;6.80;;;;;;;18.01;71.49;101405.84;5033147;28;20209;-77
2021/07/21 03:16:07;;;;;;;8.93;7.03;;;;;;;18.00;71.50;101406.84;5039508;28;20776;-79
2021/07/21 03:18:34;;;;;;;9.50;7.03;;;;;;;18.00;71.63;101412.22;5043695;28;20216;-79
2021/07/21 03:21:01;;;;;;;9.93;7.30;;;;;;;18.00;71.55;101412.22;5038838;28;20236;-79
2021/07/21 03:23:30;;;;;;;9.10;7.70;;;;;;;18.00;71.48;101406.84;5052379;28;20217;-80
2021/07/21 03:26:05;;;;;;;11.17;7.87;;;;;;;17.98;71.59;101405.25;5052490;28;20229;-79
2021/07/21 03:28:32;;;;;;;9.00;7.57;;;;;;;17.96;71.69;101407.19;5048049;28;20262;-79
2021/07/21 03:30:58;;;;;;;9.37;7.67;;;;;;;17.96;71.88;101417.97;5034387;28;20588;-80
2021/07/21 03:33:28;;;;;;;11.27;7.37;;;;;;;17.97;71.88;101417.00;5032251;28;20599;-80
2021/07/21 03:36:00;;;;;;;9.60;7.83;;;;;;;17.96;71.87;101416.16;5044578;28;20257;-81
2021/07/21 03:38:27;;;;;;;8.63;7.40;;;;;;;17.95;72.02;101418.97;5032624;28;20205;-80
2021/07/21 03:40:56;;;;;;;9.57;7.37;;;;;;;17.94;72.31;101425.34;5038913;28;20237;-79
2021/07/21 03:43:24;;;;;;;12.80;8.23;;;;;;;17.95;72.12;101421.66;5045599;28;20205;-79
2021/07/21 03:45:53;;;;;;;9.00;7.67;;;;;;;17.92;72.15;101422.75;5033492;28;20239;-79
2021/07/21 03:48:24;;;;;;;8.53;7.33;;;;;;;17.92;72.16;101420.06;5045872;28;20204;-78
2021/07/21 03:50:51;;;;;;;12.07;7.53;;;;;;;17.91;72.27;101426.47;5034994;28;20652;-78
2021/07/21 03:53:18;;;;;;;9.77;7.40;;;;;;;17.91;72.08;101431.88;5050520;28;20216;-78
2021/07/21 03:55:47;;;;;;;10.93;8.00;;;;;;;17.93;72.42;101434.41;5032269;28;20228;-78
2021/07/21 03:58:14;;;;;;;10.93;7.70;;;;;;;17.93;72.52;101437.09;5045384;28;20243;-78
2021/07/21 04:00:42;;;;;;;12.83;8.03;;;;;;;17.93;72.60;101432.56;5045807;28;20204;-78
2021/07/21 04:03:10;;;;;;;8.43;7.60;;;;;;;17.94;72.64;101436.97;5040466;28;20212;-78
2021/07/21 04:05:37;;;;;;;12.90;7.97;;;;;;;17.95;72.63;101436.00;5042429;28;20226;-79
2021/07/21 04:08:05;;;;;;;10.77;8.43;;;;;;;17.95;72.65;101438.69;5036729;28;20212;-79
2021/07/21 04:10:32;;;;;;;13.27;8.83;;;;;;;17.94;72.71;101441.50;5033964;28;20216;-78
2021/07/21 04:13:02;;;;;;;10.37;8.10;;;;;;;17.94;72.75;101449.59;5049048;28;20594;-79
2021/07/21 04:15:30;;;;;;;10.77;8.73;;;;;;;17.91;72.61;101448.03;5046539;28;20239;-78
2021/07/21 04:17:59;;;;;;;11.63;8.27;;;;;;;17.91;72.80;101452.56;5047006;28;20339;-79
2021/07/21 04:20:29;;;;;;;11.43;8.50;;;;;;;17.90;72.79;101450.84;5047692;28;20215;-79
2021/07/21 04:22:58;;;;;;;10.70;7.70;;;;;;;17.86;72.60;101450.22;5042338;28;20778;-79
2021/07/21 04:25:25;;;;;;;13.73;8.73;;;;;;;17.87;73.08;101451.94;5049190;28;20239;-78
2021/07/21 04:27:52;;;;;;;11.70;9.23;;;;;;;17.86;73.00;101455.63;5040250;28;20208;-78
2021/07/21 04:30:19;;;;;;;12.63;9.00;;;;;;;17.88;73.16;101461.75;5043294;28;20206;-79
2021/07/21 04:32:46;;;;;;;10.87;8.20;;;;;;;17.88;73.22;101452.81;5040650;28;20571;-79
2021/07/21 04:35:16;;;;;;;9.83;8.20;;;;;;;17.87;73.18;101460.03;5042482;28;20284;-78
2021/07/21 04:37:44;;;;;;;11.33;8.47;;;;;;;17.88;73.34;101459.06;5040146;28;20702;-78
2021/07/21 04:40:12;;;;;;;11.53;8.63;;;;;;;17.88;73.42;101461.75;5042158;28;20235;-78
2021/07/21 04:42:42;;;;;;;11.53;8.47;;;;;;;17.87;73.39;101473.50;5044886;28;20677;-78
2021/07/21 04:45:11;;;;;;;11.20;8.20;;;;;;;17.85;73.50;101480.00;5040590;28;20313;-78
2021/07/21 04:47:38;;;;;;;11.03;8.30;;;;;;;17.85;73.51;101480.84;5046786;28;20193;-77
2021/07/21 04:50:07;;;;;;;9.90;7.80;;;;;;;17.85;73.58;101475.47;5043882;28;20762;-78
2021/07/21 04:52:36;;;;;;;11.87;8.53;;;;;;;17.86;73.45;101481.72;5042181;28;20204;-78
2021/07/21 04:55:03;;;;;;;11.07;8.20;;;;;;;17.87;73.73;101489.69;5037581;28;20210;-78
2021/07/21 04:57:29;;;;;;;12.50;8.73;;;;;;;17.89;73.66;101487.72;5041619;28;20240;-79
2021/07/21 04:59:56;;;;;;;11.10;8.43;;;;;;;17.89;73.61;101487.72;5047772;28;20228;-78
2021/07/21 05:02:23;;;;;;;12.40;8.60;;;;;;;17.92;73.66;101497.38;5035837;28;20656;-79
2021/07/21 05:04:50;;;;;;;12.93;8.87;;;;;;;17.90;73.54;101502.06;5050920;28;20222;-79
2021/07/21 05:07:18;;;;;;;10.23;8.50;;;;;;;17.90;73.70;101499.34;5046942;28;20224;-81
2021/07/21 05:09:45;;;;;;;11.03;8.47;;;;;;;17.91;73.76;101499.25;5039802;28;20242;-79
2021/07/21 05:12:12;;;;;;;11.33;9.27;;;;;;;17.93;73.70;101499.09;5041378;28;20207;-80
2021/07/21 05:14:38;;;;;;;10.33;8.60;;;;;;;17.92;73.67;101503.63;5046404;28;20210;-80
2021/07/21 05:17:05;;;;;;;12.20;8.33;;;;;;;17.95;73.82;101495.28;5044317;28;20593;-80
2021/07/21 05:19:32;;;;;;;12.17;8.80;;;;;;;17.95;73.65;101499.81;5044213;28;20277;-81
2021/07/21 05:21:58;;;;;;;10.10;8.37;;;;;;;17.96;73.55;101496.16;5047677;28;20657;-81
2021/07/21 05:24:25;;;;;;;13.13;9.07;;;;;;;17.96;73.73;101498.84;5044475;28;20204;-79
2021/07/21 05:26:53;;;;;;;12.40;8.57;;;;;;;17.95;73.97;101503.38;5042707;28;20229;-81
2021/07/21 05:29:19;;;;;;;12.80;8.43;;;;;;;17.96;73.67;101504.22;5042451;28;20217;-79
2021/07/21 05:31:46;;;;;;;12.13;9.23;;;;;;;17.96;73.89;101502.41;5043147;28;20204;-79
2021/07/21 05:34:13;;;;;;;10.53;8.60;;;;;;;17.97;73.86;101505.94;5044623;28;20206;-80
2021/07/21 05:36:39;;;;;;;11.53;9.00;;;;;;;17.99;73.94;101506.69;5041380;28;20227;-78
2021/07/21 05:39:08;;;;;;;12.27;9.37;;;;;;;17.99;73.92;101507.53;5035762;28;20202;-79
2021/07/21 05:41:35;;;;;;;14.57;9.07;;;;;;;18.01;73.78;101512.81;5046046;28;20211;-78
2021/07/21 05:44:04;;;;;;;13.97;9.50;;;;;;;18.01;73.86;101505.59;5041544;28;20209;-79
2021/07/21 05:46:30;;;;;;;11.93;8.63;;;;;;;18.01;73.90;101513.66;5039846;28;20325;-80
2021/07/21 05:48:57;;;;;;;12.60;9.40;;;;;;;18.03;73.91;101514.41;5044773;28;20201;-79
2021/07/21 05:51:23;;;;;;;11.47;8.87;;;;;;;18.03;73.98;101519.78;5044934;28;20198;-79
2021/07/21 05:53:50;;;;;;;12.20;8.20;;;;;;;18.06;74.11;101516.00;5051485;28;20209;-79
2021/07/21 05:56:17;;;;;;;11.50;9.47;;;;;;;18.07;74.05;101512.31;5048445;28;20287;-80
2021/07/21 05:58:43;;;;;;;12.77;8.77;;;;;;;18.10;73.87;101511.19;5042748;28;20581;-79
2021/07/21 06:01:12;;;;;;;12.77;9.30;;;;;;;18.12;73.94;101523.56;5039249;28;20201;-79
2021/07/21 06:03:38;;;;;;;13.63;9.20;;;;;;;18.14;73.95;101520.75;5036637;28;20231;-79
2021/07/21 06:06:05;;;;;;;12.03;9.23;;;;;;;18.17;73.80;101523.19;5047429;28;20223;-78
2021/07/21 06:08:31;;;;;;;13.67;9.93;;;;;;;18.20;73.75;101533.75;5036246;28;20202;-79
2021/07/21 06:10:58;;;;;;;12.87;9.63;;;;;;;18.22;73.54;101538.03;5034463;28;20205;-79
2021/07/21 06:13:25;;;;;;;14.67;9.40;;;;;;;18.24;73.53;101535.22;5044446;28;20206;-78
2021/07/21 06:15:52;;;;;;;12.50;8.27;;;;;;;18.26;73.68;101527.88;5047068;28;20229;-79
2021/07/21 06:18:20;;;;;;;14.40;9.93;;;;;;;18.30;73.65;101532.00;5039950;28;20231;-79
2021/07/21 06:20:47;;;;;;;12.30;9.10;;;;;;;18.32;73.48;101530.88;5038060;28;20207;-78
2021/07/21 06:23:14;;;;;;;13.97;9.50;;;;;;;18.32;73.37;101535.44;5044974;28;20212;-79
2021/07/21 06:25:40;;;;;;;12.57;8.80;;;;;;;18.33;73.37;101540.69;5041082;28;20225;-79
2021/07/21 06:28:07;;;;;;;11.90;8.93;;;;;;;18.36;73.25;101536.91;5046747;28;20208;-79
2021/07/21 06:30:34;;;;;;;11.00;7.97;;;;;;;18.39;73.19;101547.44;5044540;28;20208;-80
2021/07/21 06:33:01;;;;;;;12.60;9.43;;;;;;;18.44;73.34;101557.88;5035931;28;20207;-80
2021/07/21 06:35:29;;;;;;;14.43;9.60;;;;;;;18.47;73.00;101550.34;5048420;28;20206;-80
2021/07/21 06:37:56;;;;;;;14.63;9.83;;;;;;;18.47;72.94;101547.66;5044414;28;20257;-79
2021/07/21 06:40:22;;;;;;;9.90;8.60;;;;;;;18.47;72.82;101553.03;5053157;28;20204;-79
2021/07/21 06:42:49;;;;;;;11.57;9.03;;;;;;;18.50;72.73;101555.50;5051056;28;20210;-79
2021/07/21 06:45:15;;;;;;;12.63;9.03;;;;;;;18.54;72.65;101562.38;5046877;28;20220;-79
2021/07/21 06:47:42;;;;;;;11.90;9.10;;;;;;;18.57;72.56;101562.13;5053968;28;20221;-79
2021/07/21 06:50:09;;;;;;;11.17;9.10;;;;;;;18.60;72.63;101566.44;5035150;28;20210;-78
2021/07/21 06:52:37;;;;;;;13.77;9.43;;;;;;;18.66;72.36;101566.78;5048160;28;20210;-78
2021/07/21 06:55:04;;;;;;;11.57;9.13;;;;;;;18.69;72.21;101568.34;5045131;28;20216;-78
2021/07/21 06:57:31;;;;;;;15.13;10.17;;;;;;;18.70;72.12;101576.34;5051535;28;20234;-78
2021/07/21 06:59:58;;;;;;;13.40;9.43;;;;;;;18.71;71.99;101567.25;5037996;28;20219;-78
2021/07/21 07:02:24;;;;;;;13.10;9.23;;;;;;;18.76;71.92;101574.13;5034082;28;20214;-78
2021/07/21 07:04:51;;;;;;;13.80;9.30;;;;;;;18.79;71.81;101565.78;5049093;28;20552;-79
2021/07/21 07:07:18;;;;;;;10.67;9.17;;;;;;;18.82;71.49;101568.19;5038399;28;20228;-80
2021/07/21 07:09:46;;;;;;;12.43;8.43;;;;;;;18.86;71.42;101564.25;5048482;28;20203;-80
2021/07/21 07:12:12;;;;;;;12.87;9.07;;;;;;;18.89;71.27;101569.41;5033313;28;20213;-78
2021/07/21 07:14:39;;;;;;;12.87;9.10;;;;;;;18.92;71.31;101570.00;5037113;28;20205;-80
2021/07/21 07:17:06;;;;;;;11.53;8.67;;;;;;;18.97;71.14;101572.31;5038848;28;20610;-80
2021/07/21 07:19:32;;;;;;;14.23;9.17;;;;;;;19.02;70.85;101575.47;5047268;28;20215;-80
2021/07/21 07:22:00;;;;;;;10.40;7.93;;;;;;;19.04;70.71;101568.97;5035317;28;20207;-80
2021/07/21 07:24:26;;;;;;;13.90;8.97;;;;;;;19.06;70.43;101571.53;5050192;28;20203;-80
2021/07/21 07:26:54;;;;;;;9.10;8.10;;;;;;;19.06;70.01;101569.69;5046945;28;20227;-80
2021/07/21 07:29:20;;;;;;;10.30;7.87;;;;;;;19.05;69.86;101578.78;5042090;28;20206;-79
2021/07/21 07:31:47;;;;;;;9.60;8.10;;;;;;;19.07;70.04;101571.41;5052326;28;20205;-79
2021/07/21 07:34:13;;;;;;;10.90;7.77;;;;;;;19.11;69.94;101574.72;5035870;28;20204;-78
2021/07/21 07:36:40;;;;;;;11.60;7.83;;;;;;;19.14;69.55;101571.75;5032957;28;20254;-79
2021/07/21 07:39:08;;;;;;;13.03;7.70;;;;;;;19.17;69.55;101570.66;5037854;28;20232;-79
2021/07/21 07:41:35;;;;;;;8.43;7.10;;;;;;;19.20;69.50;101571.22;5050681;28;20579;-78
2021/07/21 07:44:04;;;;;;;11.53;7.33;;;;;;;19.27;69.52;101575.13;5051546;28;20210;-79
2021/07/21 07:46:30;;;;;;;9.07;7.53;;;;;;;19.32;69.06;101570.19;5043170;28;20260;-80
2021/07/21 07:48:57;;;;;;;10.27;8.17;;;;;;;19.35;68.97;101567.19;5032092;28;20203;-79
2021/07/21 07:51:25;;;;;;;10.60;7.20;;;;;;;19.40;68.65;101569.53;5032630;28;20673;-79
2021/07/21 07:53:52;;;;;;;8.90;7.50;;;;;;;19.43;68.60;101572.81;5032517;28;20859;-79
2021/07/21 07:56:18;;;;;;;10.33;6.90;;;;;;;19.49;68.27;101574.16;5033099;28;20227;-80
2021/07/21 07:58:45;;;;;;;10.67;7.80;;;;;;;19.53;68.15;101566.63;5044851;28;20222;-80
2021/07/21 08:01:13;;;;;;;9.57;6.93;;;;;;;19.58;68.13;101567.09;5038403;28;20207;-81
2021/07/21 08:03:39;;;;;;;9.80;7.17;;;;;;;19.64;68.06;101567.44;5044654;28;20203;-79
2021/07/21 08:06:06;;;;;;;8.83;6.90;;;;;;;19.69;67.55;101569.75;5042208;28;20231;-79
2021/07/21 08:08:32;;;;;;;10.17;7.33;;;;;;;19.72;67.36;101562.22;5043241;28;20212;-79
2021/07/21 08:10:59;;;;;;;8.67;6.63;;;;;;;19.77;67.08;101567.22;5033333;28;20247;-80
2021/07/21 08:13:29;;;;;;;9.50;6.57;;;;;;;19.81;66.71;101570.50;5037104;28;20212;-79
2021/07/21 08:15:56;;;;;;;7.60;6.47;;;;;;;19.85;66.27;101564.72;5046380;28;20286;-79
2021/07/21 08:18:24;;;;;;;7.60;6.50;;;;;;;19.90;65.84;101572.41;5033991;28;20237;-79
2021/07/21 08:20:51;;;;;;;7.47;6.10;;;;;;;19.92;65.67;101568.56;5034577;28;20291;-79
2021/07/21 08:23:18;;;;;;;8.30;5.93;;;;;;;19.96;65.54;101571.88;5051991;28;20207;-80
2021/07/21 08:25:45;;;;;;;7.83;6.03;;;;;;;20.01;65.38;101570.47;5036400;28;20597;-80
2021/07/21 08:28:14;;;;;;;6.80;5.60;;;;;;;20.08;65.13;101566.22;5040607;28;20212;-78
2021/07/21 08:30:41;;;;;;;9.60;6.27;;;;;;;20.14;65.06;101570.22;5046694;28;20228;-78
2021/07/21 08:33:07;;;;;;;8.10;5.70;;;;;;;20.21;64.79;101567.84;5043493;28;20210;-79
2021/07/21 08:35:35;;;;;;;6.47;5.23;;;;;;;20.30;64.73;101573.28;5032736;28;20239;-78
2021/07/21 08:38:03;;;;;;;7.30;5.70;;;;;;;20.37;64.06;101574.50;5040645;28;20228;-78
2021/07/21 08:40:31;;;;;;;8.50;5.87;;;;;;;20.41;63.74;101577.78;5044248;28;20219;-78
2021/07/21 08:42:58;;;;;;;7.80;6.17;;;;;;;20.44;63.36;101574.78;5043130;28;20204;-80
2021/07/21 08:45:24;;;;;;;8.23;5.97;;;;;;;20.48;63.25;101565.38;5043566;28;20209;-78
2021/07/21 08:47:52;;;;;;;6.77;5.17;;;;;;;20.54;62.79;101577.50;5042128;28;20210;-78
2021/07/21 08:50:20;;;;;;;8.00;5.03;;;;;;;20.58;62.37;101571.69;5047015;28;20670;-78
2021/07/21 08:52:48;;;;;;;8.47;5.90;;;;;;;20.65;62.52;101572.81;5044673;28;20206;-78
2021/07/21 08:55:15;;;;;;;6.73;5.50;;;;;;;20.74;61.94;101576.56;5041663;28;20210;-79
2021/07/21 08:57:42;;;;;;;6.87;5.30;;;;;;;20.80;61.80;101582.25;5050525;28;20204;-79
2021/07/21 09:00:13;;;;;;;7.87;5.13;;;;;;;20.89;61.61;101585.97;5042746;28;20608;-78
2021/07/21 09:02:40;;;;;;;5.50;5.00;;;;;;;20.95;60.99;101589.97;5041934;28;20749;-80
2021/07/21 09:05:08;;;;;;;6.20;5.60;;;;;;;21.01;60.98;101583.97;5047331;28;20204;-79
2021/07/21 09:07:35;;;;;;;7.77;5.63;;;;;;;21.08;60.80;101590.56;5044949;28;20244;-78
2021/07/21 09:10:05;;;;;;;6.93;5.77;;;;;;;21.19;60.70;101586.84;5048365;28;20204;-80
2021/07/21 09:12:32;;;;;;;6.93;4.77;;;;;;;21.26;60.48;101580.75;5045383;28;20311;-78
2021/07/21 09:14:58;;;;;;;6.33;5.00;;;;;;;21.33;60.02;101581.00;5048487;28;20209;-78
2021/07/21 09:17:26;;;;;;;6.83;5.40;;;;;;;21.36;59.63;101588.84;5046579;28;20229;-78
2021/07/21 09:19:53;;;;;;;8.90;5.50;;;;;;;21.40;59.72;101584.84;5042394;28;20316;-80
2021/07/21 09:22:22;;;;;;;8.57;5.47;;;;;;;21.47;59.55;101589.56;5049262;28;20301;-79
2021/07/21 09:25:12;;;;;;;9.50;6.50;;;;;;;21.53;59.35;101587.25;5043923;28;20211;-78
2021/07/21 09:27:39;;;;;;;6.47;5.57;;;;;;;21.57;59.21;101583.25;5044617;28;20295;-79
2021/07/21 09:30:07;;;;;;;9.30;6.07;;;;;;;21.63;59.08;101588.09;5045189;28;20239;-79
2021/07/21 09:32:53;;;;;;;8.73;5.78;;;;;;;21.64;58.90;101589.81;5044793;28;20232;-79
2021/07/21 09:35:20;;;;;;;7.53;5.37;;;;;;;21.66;58.77;101587.81;5042427;28;20562;-79
2021/07/21 09:37:48;;;;;;;8.07;5.57;;;;;;;21.67;58.63;101589.53;5040428;28;20201;-79
2021/07/21 09:40:17;;;;;;;6.63;5.43;;;;;;;21.66;58.60;101587.81;5046208;28;20229;-78
2021/07/21 09:42:43;;;;;;;9.83;6.50;;;;;;;21.65;58.77;101588.81;5046542;28;20202;-78
2021/07/21 09:45:11;;;;;;;6.70;5.73;;;;;;;21.69;58.85;101592.94;5047025;28;20225;-78
2021/07/21 09:47:41;;;;;;;9.03;5.60;;;;;;;21.73;58.78;101580.78;5046849;28;20260;-78
2021/07/21 09:50:16;;;;;;;8.93;5.47;;;;;;;21.74;58.41;101586.06;5047675;28;20230;-80
2021/07/21 09:52:46;;;;;;;9.50;5.77;;;;;;;21.77;58.51;101587.63;5044997;28;20221;-78
2021/07/21 09:55:16;;;;;;;8.43;5.93;;;;;;;21.80;58.55;101579.22;5047918;28;20651;-78
2021/07/21 09:57:57;;;;;;;6.20;5.30;;;;;;;21.89;58.60;101585.59;5039918;28;20200;-78
2021/07/21 10:00:25;;;;;;;7.70;5.83;;;;;;;21.91;57.83;101581.75;5043454;28;20307;-78
2021/07/21 10:03:06;;;;;;;6.13;5.20;;;;;;;21.94;57.76;101576.03;5041578;28;20282;-79
2021/07/21 10:05:32;;;;;;;6.00;4.87;;;;;;;21.97;57.45;101580.31;5041037;28;20212;-78
2021/07/21 10:08:02;;;;;;;8.33;4.70;;;;;;;22.02;57.30;101578.91;5045789;28;20243;-78
2021/07/21 10:10:31;;;;;;;6.23;4.93;;;;;;;22.09;57.02;101584.56;5046225;28;20207;-79
2021/07/21 10:13:00;;;;;;;6.03;5.40;;;;;;;22.11;56.65;101580.69;5038568;28;20263;-79
2021/07/21 10:15:28;;;;;;;6.80;4.97;;;;;;;22.14;56.49;101584.97;5043947;28;20291;-79
2021/07/21 10:18:08;;;;;;;6.57;5.57;;;;;;;22.15;56.76;101576.69;5044936;28;20208;-80
2021/07/21 10:20:35;;;;;;;7.28;5.63;;;;;;;22.16;56.45;101575.69;5039566;28;20210;-80
2021/07/21 10:23:02;;;;;;;7.73;5.43;;;;;;;22.16;56.24;101570.25;5042256;28;20203;-79
2021/07/21 10:25:31;;;;;;;7.50;5.27;;;;;;;22.16;56.27;101575.69;5039079;28;20248;-79
2021/07/21 10:27:58;;;;;;;6.68;5.47;;;;;;;22.15;56.14;101571.25;5042889;28;20286;-80
2021/07/21 10:30:26;;;;;;;7.23;6.10;;;;;;;22.17;56.08;101571.97;5042127;28;20210;-79
2021/07/21 10:32:54;;;;;;;14.10;6.13;;;;;;;22.16;55.84;101575.69;5042083;28;20240;-79
2021/07/21 10:35:21;;;;;;;6.88;5.53;;;;;;;22.19;55.77;101576.41;5050068;28;20211;-77
2021/07/21 10:37:49;;;;;;;11.60;9.80;;;;;;;22.19;56.08;101573.69;5038746;28;20212;-79
2021/07/21 10:40:18;;;;;;;9.43;6.60;;;;;;;22.21;56.34;101566.25;5047422;28;20225;-78
2021/07/21 10:42:47;;;;;;;8.65;6.50;;;;;;;22.20;55.96;101570.81;5043696;28;20240;-79
2021/07/21 10:45:16;;;;;;;8.40;6.73;;;;;;;22.24;55.94;101568.63;5041156;28;20217;-79
2021/07/21 10:47:47;;;;;;;7.43;6.23;;;;;;;22.27;55.98;101571.06;5036572;28;20569;-77
2021/07/21 10:50:33;;;;;;;8.63;5.97;;;;;;;22.26;55.71;101572.06;5049347;28;20204;-78
2021/07/21 10:53:34;;;;;;;7.75;6.40;;;;;;;22.25;55.94;101562.19;5051188;28;20257;-79
2021/07/21 10:59:21;;;;;;;7.57;6.18;;;;;;;22.17;56.03;101566.53;5046312;28;20666;-78
2021/07/21 11:01:49;;;;;;;8.00;7.20;;;;;;;22.16;56.02;101564.84;5047008;28;20202;-78
2021/07/21 11:04:16;;;;;;;8.00;6.87;;;;;;;22.12;56.20;101568.84;5038408;28;20216;-79
2021/07/21 11:06:44;;;;;;;8.48;6.63;;;;;;;22.10;56.34;101568.13;5033991;28;20225;-79
2021/07/21 11:09:19;;;;;;;7.05;6.32;;;;;;;22.08;55.96;101567.44;5052380;28;20211;-79
2021/07/21 11:11:47;;;;;;;7.97;6.00;;;;;;;22.02;55.65;101564.47;5043405;28;20248;-78
2021/07/21 11:14:19;;;;;;;7.00;5.88;;;;;;;21.95;55.65;101572.31;5041311;28;20201;-79
2021/07/21 11:16:48;;;;;;;7.75;5.70;;;;;;;21.92;55.51;101566.31;5044953;28;20601;-77
2021/07/21 11:19:38;;;;;;;6.17;5.57;;;;;;;21.87;55.45;101577.59;5043385;28;20223;-78
2021/07/21 11:22:08;;;;;;;8.13;6.53;;;;;;;21.84;55.36;101575.22;5043766;28;20231;-79
2021/07/21 11:25:09;;;;;;;7.27;5.83;;;;;;;21.82;55.26;101578.06;5041148;28;20214;-77
2021/07/21 11:27:41;;;;;;;6.93;6.22;;;;;;;21.77;54.99;101577.66;5038437;28;20714;-77
2021/07/21 11:30:38;;;;;;;6.63;6.03;;;;;;;21.75;54.98;101576.09;5042158;28;20205;-77
2021/07/21 11:33:55;;;;;;;8.27;6.70;;;;;;;21.74;55.00;101580.66;5043589;28;20670;-78